Time;durP1;ratioP1;P1;durP2;ratioP2;P2;SDS_P1;SDS_P2;PMS_P1;PMS_P2;Temp;Humidity;BMP_temperature;BMP_pressure;BME280_temperature;BME280_humidity;BME280_pressure;Samples;Min_cycle;Max_cycle;Signal;HPM_P1;HPM_P2
2022/03/25 00:02:20;;;;;;;17.23;12.57;;;9.90;51.40;;;;;;4971793;28;20181;-67
2022/03/25 00:04:52;;;;;;;21.47;14.10;;;9.90;51.40;;;;;;4969599;28;20190;-70
2022/03/25 00:07:20;;;;;;;17.10;12.17;;;9.80;52.00;;;;;;4966087;28;20192;-69
2022/03/25 00:09:46;;;;;;;19.83;13.40;;;9.80;51.80;;;;;;4973696;28;20413;-70
2022/03/25 00:12:12;;;;;;;16.53;12.07;;;9.70;52.10;;;;;;4973105;28;20216;-68
2022/03/25 00:14:37;;;;;;;17.33;12.27;;;9.70;52.30;;;;;;4968126;28;20212;-70
2022/03/25 00:17:03;;;;;;;18.17;12.20;;;9.70;52.60;;;;;;4973175;28;20190;-70
2022/03/25 00:19:31;;;;;;;17.33;12.57;;;9.60;52.70;;;;;;4967344;28;20187;-70
2022/03/25 00:22:02;;;;;;;18.60;12.80;;;9.60;53.20;;;;;;4981141;28;20203;-70
2022/03/25 00:24:30;;;;;;;18.60;12.60;;;9.60;53.00;;;;;;4968957;28;20172;-69
2022/03/25 00:26:56;;;;;;;17.80;12.33;;;9.60;53.50;;;;;;4966777;28;20176;-70
2022/03/25 00:29:21;;;;;;;17.03;11.77;;;9.60;53.30;;;;;;4971154;28;20215;-68
2022/03/25 00:31:47;;;;;;;18.07;12.20;;;9.50;53.40;;;;;;4973365;28;20195;-70
2022/03/25 00:34:12;;;;;;;18.00;11.87;;;9.50;53.40;;;;;;4967499;28;20188;-69
2022/03/25 00:36:41;;;;;;;18.23;12.70;;;9.50;53.50;;;;;;4969532;28;20176;-70
2022/03/25 00:39:08;;;;;;;20.37;13.10;;;9.40;53.80;;;;;;4971639;28;20199;-70
2022/03/25 00:41:37;;;;;;;17.87;12.13;;;9.40;53.90;;;;;;4970760;28;20216;-69
2022/03/25 00:44:05;;;;;;;26.00;12.43;;;9.40;54.60;;;;;;4961488;28;20195;-70
2022/03/25 00:46:33;;;;;;;20.50;12.00;;;9.30;54.30;;;;;;4969742;28;20180;-70
2022/03/25 00:48:59;;;;;;;19.27;12.83;;;9.20;54.10;;;;;;4968736;28;20199;-69
2022/03/25 00:51:31;;;;;;;17.03;12.47;;;9.20;54.80;;;;;;4974981;28;20350;-68
2022/03/25 00:54:02;;;;;;;16.67;11.63;;;9.20;54.70;;;;;;4971317;28;20211;-71
2022/03/25 00:56:29;;;;;;;18.03;11.83;;;9.10;54.80;;;;;;4970527;28;20198;-70
2022/03/25 00:58:55;;;;;;;16.60;12.00;;;9.10;54.90;;;;;;4971007;28;20187;-69
2022/03/25 01:01:21;;;;;;;18.07;11.83;;;9.10;55.70;;;;;;4967221;28;20210;-68
2022/03/25 01:03:47;;;;;;;16.57;11.47;;;9.00;55.20;;;;;;4969013;28;20216;-68
2022/03/25 01:06:18;;;;;;;18.83;11.77;;;9.00;55.30;;;;;;4964038;28;20528;-69
2022/03/25 01:08:43;;;;;;;14.17;10.60;;;9.00;55.70;;;;;;4967383;28;20222;-70
2022/03/25 01:11:09;;;;;;;17.50;11.27;;;8.90;55.60;;;;;;4969742;28;20241;-70
2022/03/25 01:13:35;;;;;;;15.57;11.23;;;8.90;55.90;;;;;;4966547;28;20180;-70
2022/03/25 01:16:02;;;;;;;15.50;10.80;;;8.90;56.10;;;;;;4972620;28;20188;-70
2022/03/25 01:18:31;;;;;;;16.93;10.77;;;8.90;56.30;;;;;;4969479;28;20286;-70
2022/03/25 01:20:57;;;;;;;15.20;11.30;;;8.90;56.60;;;;;;4973575;28;20298;-70
2022/03/25 01:23:24;;;;;;;16.87;11.50;;;8.90;56.40;;;;;;4972402;28;20176;-70
2022/03/25 01:25:50;;;;;;;16.37;11.47;;;8.90;56.90;;;;;;4969984;28;20327;-70
2022/03/25 01:28:18;;;;;;;18.43;11.63;;;8.90;57.00;;;;;;4975150;28;20243;-70
2022/03/25 01:30:45;;;;;;;18.23;11.43;;;8.80;57.10;;;;;;4971420;28;20244;-70
2022/03/25 01:33:18;;;;;;;16.87;11.30;;;8.70;57.10;;;;;;4975176;28;20398;-70
2022/03/25 01:35:46;;;;;;;16.03;10.90;;;8.70;57.40;;;;;;4967238;28;20187;-70
2022/03/25 01:38:13;;;;;;;16.93;10.47;;;8.70;57.30;;;;;;4971871;28;20196;-70
2022/03/25 01:40:43;;;;;;;16.23;11.00;;;8.60;57.50;;;;;;4975011;28;20208;-71
2022/03/25 01:43:09;;;;;;;15.97;10.80;;;8.60;58.10;;;;;;4975051;28;20199;-70
2022/03/25 01:45:37;;;;;;;15.33;10.90;;;8.60;58.20;;;;;;4977066;28;20215;-68
2022/03/25 01:48:12;;;;;;;16.77;11.57;;;8.60;58.30;;;;;;4977278;28;20190;-69
2022/03/25 01:50:42;;;;;;;16.53;11.20;;;8.60;58.80;;;;;;4973463;28;20238;-70
2022/03/25 01:53:22;;;;;;;18.27;11.57;;;8.60;58.90;;;;;;4975408;28;20184;-70
2022/03/25 01:55:56;;;;;;;17.70;11.60;;;8.60;59.30;;;;;;4974685;28;20199;-71
2022/03/25 01:58:25;;;;;;;15.83;11.30;;;8.50;58.60;;;;;;4971622;28;20184;-69
2022/03/25 02:00:58;;;;;;;15.80;11.80;;;8.50;58.60;;;;;;4978909;28;20510;-69
2022/03/25 02:03:24;;;;;;;15.87;11.73;;;8.50;59.30;;;;;;4974368;28;20300;-70
2022/03/25 02:05:52;;;;;;;17.87;12.00;;;8.50;60.20;;;;;;4976955;28;20208;-68
2022/03/25 02:08:20;;;;;;;17.80;11.27;;;8.40;59.80;;;;;;4971791;28;20194;-70
2022/03/25 02:10:51;;;;;;;18.50;11.50;;;8.40;59.50;;;;;;4969632;28;20208;-67
2022/03/25 02:13:18;;;;;;;16.77;11.73;;;8.30;60.00;;;;;;4975615;28;20207;-68
2022/03/25 02:15:48;;;;;;;16.73;10.90;;;8.20;59.80;;;;;;4973867;28;20271;-70
2022/03/25 02:18:18;;;;;;;17.97;11.03;;;8.20;59.90;;;;;;4982818;28;20279;-70
2022/03/25 02:20:50;;;;;;;15.47;11.07;;;8.20;60.20;;;;;;4975808;28;20240;-70
2022/03/25 02:23:16;;;;;;;17.93;11.33;;;8.20;60.50;;;;;;4973930;28;20231;-70
2022/03/25 02:25:46;;;;;;;14.80;10.67;;;8.10;60.80;;;;;;4971214;28;20196;-70
2022/03/25 02:28:14;;;;;;;14.83;10.57;;;8.10;60.90;;;;;;4967309;28;20180;-70
2022/03/25 02:30:39;;;;;;;15.67;10.10;;;8.00;61.40;;;;;;4977196;28;20291;-70
2022/03/25 02:33:07;;;;;;;14.73;10.10;;;8.00;61.40;;;;;;4979288;28;20251;-69
2022/03/25 02:35:37;;;;;;;15.03;10.67;;;8.00;62.00;;;;;;4976230;28;20212;-69
2022/03/25 02:38:08;;;;;;;14.43;10.33;;;8.00;62.90;;;;;;4975410;28;20203;-70
2022/03/25 02:40:34;;;;;;;13.53;10.20;;;8.00;62.80;;;;;;4974159;28;20233;-70
2022/03/25 02:43:02;;;;;;;15.83;10.60;;;8.00;62.30;;;;;;4972046;28;20222;-67
2022/03/25 02:45:31;;;;;;;16.50;10.87;;;8.00;62.60;;;;;;4977656;28;20179;-71
2022/03/25 02:47:56;;;;;;;19.17;11.93;;;8.00;63.40;;;;;;4968728;28;20192;-71
2022/03/25 02:50:22;;;;;;;16.47;11.93;;;7.90;64.50;;;;;;4952185;28;20212;-71
2022/03/25 02:52:54;;;;;;;18.47;12.53;;;7.90;65.20;;;;;;4975224;28;20195;-70
2022/03/25 02:55:19;;;;;;;18.47;11.73;;;7.80;65.80;;;;;;4973161;28;20224;-70
2022/03/25 02:57:45;;;;;;;16.03;11.47;;;7.80;65.40;;;;;;4974514;28;20184;-69
2022/03/25 03:00:13;;;;;;;16.87;11.03;;;7.70;65.40;;;;;;4973214;28;20361;-70
2022/03/25 03:02:46;;;;;;;15.40;10.20;;;7.60;66.30;;;;;;4963453;28;20271;-70
2022/03/25 03:05:12;;;;;;;18.73;12.07;;;7.60;67.20;;;;;;4975971;28;20184;-68
2022/03/25 03:07:40;;;;;;;17.53;12.63;;;7.60;68.20;;;;;;4973918;28;20172;-70
2022/03/25 03:10:10;;;;;;;18.03;11.70;;;7.50;69.00;;;;;;4972618;28;20291;-70
2022/03/25 03:12:37;;;;;;;18.87;12.73;;;7.40;69.80;;;;;;4975287;28;20187;-70
2022/03/25 03:15:06;;;;;;;18.93;13.03;;;7.40;71.40;;;;;;4972019;28;20201;-70
2022/03/25 03:17:32;;;;;;;18.50;12.10;;;7.30;72.10;;;;;;4964925;28;20200;-70
2022/03/25 03:19:58;;;;;;;16.87;11.77;;;7.30;71.80;;;;;;4974089;28;20208;-70
2022/03/25 03:22:25;;;;;;;17.67;11.90;;;7.30;71.40;;;;;;4969584;28;20185;-71
2022/03/25 03:24:53;;;;;;;16.93;10.87;;;7.20;72.40;;;;;;4964510;28;20177;-70
2022/03/25 03:27:21;;;;;;;17.20;11.77;;;7.20;72.40;;;;;;4974104;28;20239;-70
2022/03/25 03:29:47;;;;;;;20.53;12.57;;;7.10;74.60;;;;;;4973050;28;20216;-70
2022/03/25 03:32:14;;;;;;;17.33;12.73;;;7.10;75.80;;;;;;4974709;28;20184;-70
2022/03/25 03:34:42;;;;;;;18.17;13.17;;;7.00;76.90;;;;;;4971668;28;20195;-70
2022/03/25 03:37:08;;;;;;;19.10;12.83;;;7.00;78.30;;;;;;4972752;28;20212;-70
2022/03/25 03:39:36;;;;;;;19.57;13.70;;;6.90;79.70;;;;;;4975452;28;20212;-70
2022/03/25 03:42:03;;;;;;;18.00;13.17;;;6.90;80.30;;;;;;4972747;28;20177;-71
2022/03/25 03:44:31;;;;;;;18.37;13.13;;;6.80;78.80;;;;;;4969479;28;20188;-70
2022/03/25 03:46:57;;;;;;;14.90;10.97;;;6.80;79.40;;;;;;4973095;28;20186;-70
2022/03/25 03:49:23;;;;;;;16.97;11.27;;;6.70;78.70;;;;;;4975812;28;20196;-70
2022/03/25 03:51:49;;;;;;;17.53;11.20;;;6.70;78.90;;;;;;4972669;28;20185;-70
2022/03/25 03:54:15;;;;;;;16.20;11.27;;;6.70;79.30;;;;;;4970492;28;20181;-72
2022/03/25 03:56:42;;;;;;;17.40;12.03;;;6.70;79.50;;;;;;4979845;28;20234;-70
2022/03/25 03:59:10;;;;;;;19.23;12.07;;;6.70;81.20;;;;;;4974469;28;20196;-71
2022/03/25 04:01:38;;;;;;;17.43;12.60;;;6.70;81.90;;;;;;4976778;28;20192;-71
2022/03/25 04:04:03;;;;;;;17.97;12.43;;;6.70;81.30;;;;;;4975144;28;20265;-70
2022/03/25 04:06:31;;;;;;;16.87;12.57;;;6.70;82.50;;;;;;4972151;28;20188;-71
2022/03/25 04:08:59;;;;;;;18.57;13.90;;;6.70;83.10;;;;;;4972301;28;20267;-70
2022/03/25 04:11:27;;;;;;;19.40;12.97;;;6.70;84.10;;;;;;4974315;28;20180;-71
2022/03/25 04:13:53;;;;;;;21.60;13.43;;;6.60;85.30;;;;;;4972530;28;20316;-71
2022/03/25 04:16:22;;;;;;;19.07;12.73;;;6.60;84.90;;;;;;4969980;28;20291;-71
2022/03/25 04:18:48;;;;;;;17.83;12.63;;;6.60;85.40;;;;;;4966331;28;20207;-71
2022/03/25 04:21:16;;;;;;;17.70;12.70;;;6.50;84.60;;;;;;4975793;28;20204;-70
2022/03/25 04:23:44;;;;;;;19.03;12.77;;;6.50;84.50;;;;;;4971681;28;20204;-71
2022/03/25 04:26:12;;;;;;;18.27;12.50;;;6.40;85.90;;;;;;4959089;28;20187;-71
2022/03/25 04:28:38;;;;;;;18.03;12.37;;;6.40;86.60;;;;;;4980494;28;20205;-71
2022/03/25 04:31:06;;;;;;;19.00;13.20;;;6.40;84.70;;;;;;4974242;28;20183;-71
2022/03/25 04:33:37;;;;;;;16.97;12.77;;;6.40;85.80;;;;;;4974846;28;20326;-70
2022/03/25 04:36:05;;;;;;;19.20;13.67;;;6.30;88.60;;;;;;4969154;28;20208;-71
2022/03/25 04:38:31;;;;;;;19.97;14.10;;;6.30;87.70;;;;;;4958647;28;20246;-71
2022/03/25 04:40:59;;;;;;;19.40;13.80;;;6.30;87.80;;;;;;4973309;28;20298;-71
2022/03/25 04:43:29;;;;;;;20.50;15.30;;;6.30;89.30;;;;;;4973571;28;20262;-71
2022/03/25 04:45:57;;;;;;;21.00;14.60;;;6.30;89.50;;;;;;4967121;28;20295;-70
2022/03/25 04:48:23;;;;;;;20.80;13.93;;;6.20;88.90;;;;;;4987694;28;20189;-68
2022/03/25 04:50:51;;;;;;;18.60;13.70;;;6.20;87.20;;;;;;4974051;28;20199;-68
2022/03/25 04:53:19;;;;;;;17.63;13.10;;;6.20;87.00;;;;;;4974407;28;20247;-68
2022/03/25 04:55:47;;;;;;;17.67;12.80;;;6.20;86.80;;;;;;4972237;28;20184;-71
2022/03/25 04:58:14;;;;;;;16.93;12.13;;;6.20;86.80;;;;;;4970409;28;20195;-71
2022/03/25 05:00:43;;;;;;;18.97;12.57;;;6.20;86.70;;;;;;4971538;28;20333;-72
2022/03/25 05:03:11;;;;;;;18.10;12.70;;;6.20;87.30;;;;;;4966310;28;20287;-70
2022/03/25 05:05:42;;;;;;;18.03;12.77;;;6.20;87.60;;;;;;4969497;28;20184;-71
2022/03/25 05:08:08;;;;;;;19.03;12.37;;;6.20;88.30;;;;;;4975730;28;20199;-71
2022/03/25 05:10:37;;;;;;;15.67;11.37;;;6.30;87.00;;;;;;4972557;28;20180;-71
2022/03/25 05:13:06;;;;;;;19.90;11.60;;;6.30;87.20;;;;;;4967277;28;20185;-70
2022/03/25 05:15:36;;;;;;;17.30;12.47;;;6.30;87.60;;;;;;4966586;28;20215;-69
2022/03/25 05:18:05;;;;;;;17.80;12.63;;;6.30;86.50;;;;;;4970924;28;20214;-69
2022/03/25 05:20:30;;;;;;;17.77;11.67;;;6.30;86.60;;;;;;4971602;28;20203;-69
2022/03/25 05:22:56;;;;;;;17.33;12.40;;;6.30;86.40;;;;;;4972230;28;20204;-69
2022/03/25 05:25:22;;;;;;;16.83;11.77;;;6.40;87.00;;;;;;4962186;28;20237;-68
2022/03/25 05:27:57;;;;;;;15.53;11.13;;;6.40;86.70;;;;;;4970388;28;20183;-68
2022/03/25 05:30:29;;;;;;;18.67;12.00;;;6.40;88.00;;;;;;4961231;28;20464;-71
2022/03/25 05:32:59;;;;;;;16.80;11.40;;;6.40;88.30;;;;;;4972143;28;20191;-69
2022/03/25 05:35:26;;;;;;;15.30;10.97;;;6.30;88.00;;;;;;4968936;28;21691;-69
2022/03/25 05:37:55;;;;;;;17.20;11.27;;;6.30;87.00;;;;;;4978405;28;20389;-69
2022/03/25 05:40:25;;;;;;;22.20;14.90;;;6.30;88.10;;;;;;4968228;28;20205;-69
2022/03/25 05:42:51;;;;;;;19.57;13.97;;;6.30;87.90;;;;;;4968053;28;20183;-70
2022/03/25 05:45:22;;;;;;;18.47;12.60;;;6.20;88.10;;;;;;4968743;28;20176;-71
2022/03/25 05:47:49;;;;;;;18.63;12.60;;;6.20;89.40;;;;;;4967611;28;20291;-70
2022/03/25 05:50:18;;;;;;;19.43;13.13;;;6.20;87.90;;;;;;4969337;28;20180;-71
2022/03/25 05:52:47;;;;;;;22.57;14.03;;;6.20;89.30;;;;;;4969966;28;20346;-68
2022/03/25 05:55:13;;;;;;;20.17;13.93;;;6.20;90.60;;;;;;4971391;28;20187;-70
2022/03/25 05:57:41;;;;;;;19.47;12.47;;;6.20;90.10;;;;;;4969394;28;20264;-77
2022/03/25 06:00:08;;;;;;;18.53;12.20;;;6.20;90.50;;;;;;4968481;28;20307;-76
2022/03/25 06:02:35;;;;;;;18.67;12.83;;;6.10;90.00;;;;;;4967237;28;20173;-76
2022/03/25 06:05:03;;;;;;;19.07;13.10;;;6.20;90.20;;;;;;4970365;28;20181;-80
2022/03/25 06:07:37;;;;;;;18.17;12.13;;;6.20;90.40;;;;;;4967272;28;20200;-78
2022/03/25 06:10:05;;;;;;;17.97;12.60;;;6.20;91.40;;;;;;4983069;28;20202;-79
2022/03/25 06:12:31;;;;;;;17.27;11.60;;;6.20;90.40;;;;;;4967847;28;20267;-80
2022/03/25 06:15:02;;;;;;;16.67;11.97;;;6.30;90.30;;;;;;4970826;28;20219;-80
2022/03/25 06:17:30;;;;;;;18.33;11.93;;;6.30;90.30;;;;;;4975474;28;20180;-73
2022/03/25 06:19:56;;;;;;;17.30;12.20;;;6.40;90.30;;;;;;4969792;28;20212;-67
2022/03/25 06:22:24;;;;;;;19.90;11.70;;;6.40;90.40;;;;;;4975792;28;20188;-69
2022/03/25 06:24:52;;;;;;;17.50;12.00;;;6.40;90.80;;;;;;4977713;28;20191;-70
2022/03/25 06:27:19;;;;;;;16.40;11.87;;;6.50;90.60;;;;;;4974202;28;20193;-70
2022/03/25 06:29:47;;;;;;;20.87;13.40;;;6.60;90.50;;;;;;4975134;28;20252;-70
2022/03/25 06:32:13;;;;;;;25.63;12.87;;;6.60;90.30;;;;;;4961933;28;20184;-70
2022/03/25 06:34:41;;;;;;;19.60;13.63;;;6.70;90.20;;;;;;4977398;28;20187;-71
2022/03/25 06:37:10;;;;;;;25.47;14.13;;;6.70;90.60;;;;;;4976578;28;20190;-71
2022/03/25 06:39:36;;;;;;;18.87;13.23;;;6.80;90.60;;;;;;4970553;28;20291;-70
2022/03/25 06:42:04;;;;;;;22.07;14.37;;;6.80;90.50;;;;;;4968833;28;20598;-70
2022/03/25 06:44:32;;;;;;;22.10;14.57;;;6.90;90.80;;;;;;4977635;28;20180;-69
2022/03/25 06:47:00;;;;;;;21.60;14.63;;;7.00;91.40;;;;;;4971175;28;20267;-70
2022/03/25 06:49:28;;;;;;;20.90;13.90;;;7.00;91.10;;;;;;4972332;28;20181;-70
2022/03/25 06:52:00;;;;;;;22.77;14.73;;;7.10;91.30;;;;;;4957703;28;20200;-70
2022/03/25 06:54:26;;;;;;;19.20;12.83;;;7.20;91.80;;;;;;4965347;28;20271;-70
2022/03/25 06:56:55;;;;;;;23.33;14.10;;;7.30;91.20;;;;;;4974362;28;20267;-71
2022/03/25 06:59:21;;;;;;;19.50;14.13;;;7.40;91.00;;;;;;4974973;28;20214;-70
2022/03/25 07:01:47;;;;;;;21.13;14.77;;;7.50;90.70;;;;;;4974801;28;20196;-70
2022/03/25 07:04:13;;;;;;;21.30;14.93;;;7.50;91.00;;;;;;4969523;28;20196;-71
2022/03/25 07:06:38;;;;;;;19.83;14.70;;;7.60;91.10;;;;;;4976418;28;20207;-71
2022/03/25 07:09:04;;;;;;;22.73;15.60;;;7.70;91.10;;;;;;4974272;28;20176;-71
2022/03/25 07:11:30;;;;;;;23.17;15.67;;;7.70;91.30;;;;;;4966266;28;20342;-65
2022/03/25 07:13:56;;;;;;;21.83;15.30;;;7.90;91.40;;;;;;4963851;28;20195;-71
2022/03/25 07:16:24;;;;;;;24.10;14.07;;;7.90;91.30;;;;;;4974326;28;20266;-70
2022/03/25 07:18:49;;;;;;;23.00;15.27;;;8.00;91.20;;;;;;4960804;28;20184;-71
2022/03/25 07:21:16;;;;;;;24.47;16.17;;;8.10;91.30;;;;;;4968151;28;20204;-71
2022/03/25 07:23:44;;;;;;;21.57;15.57;;;8.20;90.90;;;;;;4976116;28;20223;-69
2022/03/25 07:26:12;;;;;;;21.27;14.93;;;8.20;91.10;;;;;;4976324;28;20195;-71
2022/03/25 07:28:38;;;;;;;24.17;15.73;;;8.30;91.20;;;;;;4976396;28;20203;-70
2022/03/25 07:31:05;;;;;;;19.07;14.63;;;8.40;91.00;;;;;;4976060;28;20294;-71
2022/03/25 07:33:30;;;;;;;21.37;15.00;;;8.50;90.80;;;;;;4975913;28;20172;-71
2022/03/25 07:36:00;;;;;;;22.03;14.93;;;8.50;90.80;;;;;;4987615;28;20171;-71
2022/03/25 07:38:31;;;;;;;25.43;16.03;;;8.60;90.80;;;;;;4983976;28;20211;-71
2022/03/25 07:40:57;;;;;;;21.80;15.17;;;8.70;90.90;;;;;;4976088;28;20204;-71
2022/03/25 07:43:25;;;;;;;24.53;15.73;;;8.70;90.50;;;;;;4976530;28;20168;-71
2022/03/25 07:45:51;;;;;;;23.83;16.63;;;8.80;90.50;;;;;;4975880;28;20211;-71
2022/03/25 07:48:17;;;;;;;23.73;16.00;;;8.90;90.30;;;;;;4973769;28;20199;-71
2022/03/25 07:50:43;;;;;;;23.83;15.90;;;9.00;90.10;;;;;;4968173;28;20204;-71
2022/03/25 07:53:09;;;;;;;28.17;16.43;;;9.00;90.00;;;;;;4976090;28;20190;-71
2022/03/25 07:55:35;;;;;;;24.50;16.87;;;9.10;89.60;;;;;;4976944;28;20270;-71
2022/03/25 07:58:03;;;;;;;25.40;17.10;;;9.20;89.00;;;;;;4979089;28;20238;-72
2022/03/25 08:00:31;;;;;;;25.87;16.80;;;9.30;88.80;;;;;;4976326;28;20303;-71
2022/03/25 08:02:59;;;;;;;24.10;16.77;;;9.30;88.80;;;;;;4976034;28;20239;-72
2022/03/25 08:05:29;;;;;;;24.47;16.50;;;9.40;88.70;;;;;;4963618;28;20261;-70
2022/03/25 08:07:57;;;;;;;24.53;17.30;;;9.50;88.50;;;;;;4972640;28;20223;-72
2022/03/25 08:10:25;;;;;;;23.53;17.10;;;9.60;88.30;;;;;;4957034;28;20269;-71
2022/03/25 08:12:54;;;;;;;29.00;18.23;;;9.70;88.60;;;;;;4962650;28;20370;-72
2022/03/25 08:15:21;;;;;;;24.67;17.03;;;9.70;88.80;;;;;;4972543;28;20223;-71
2022/03/25 08:17:57;;;;;;;29.60;19.20;;;9.80;88.70;;;;;;4975106;28;20215;-71
2022/03/25 08:20:25;;;;;;;25.83;18.03;;;9.90;89.70;;;;;;4963157;28;20286;-72
2022/03/25 08:22:54;;;;;;;27.30;17.30;;;10.00;87.70;;;;;;4975894;28;20172;-72
2022/03/25 08:28:10;;;;;;;24.20;17.13;;;10.20;87.50;;;;;;4969309;28;20254;-72
2022/03/25 08:30:39;;;;;;;25.47;18.50;;;10.30;87.50;;;;;;4975979;28;20270;-70
2022/03/25 08:33:05;;;;;;;27.23;19.37;;;10.40;87.50;;;;;;4978785;28;20295;-69
2022/03/25 08:35:36;;;;;;;26.27;19.33;;;10.50;87.20;;;;;;4966590;28;20274;-72
2022/03/25 08:38:04;;;;;;;31.67;19.70;;;10.60;86.90;;;;;;4975086;28;20176;-71
2022/03/25 08:40:32;;;;;;;33.03;20.57;;;10.60;86.80;;;;;;4974375;28;20248;-72
2022/03/25 08:42:58;;;;;;;28.13;20.13;;;10.70;87.30;;;;;;4974840;28;20184;-71
2022/03/25 08:45:27;;;;;;;27.83;19.23;;;10.80;87.20;;;;;;4980587;28;20231;-72
2022/03/25 08:47:53;;;;;;;28.80;19.67;;;10.90;87.00;;;;;;4975353;28;20239;-71
2022/03/25 08:50:22;;;;;;;29.20;20.23;;;11.00;86.60;;;;;;4975020;28;20285;-72
2022/03/25 08:52:50;;;;;;;30.63;20.67;;;11.10;86.00;;;;;;4975290;28;20196;-72
2022/03/25 08:55:19;;;;;;;31.13;21.03;;;11.20;85.40;;;;;;4961948;28;20184;-72
2022/03/25 08:57:49;;;;;;;29.93;20.63;;;11.20;85.00;;;;;;4975285;28;20184;-73
2022/03/25 09:00:19;;;;;;;29.20;20.70;;;11.30;85.10;;;;;;4971819;28;20232;-72
2022/03/25 09:02:53;;;;;;;29.88;20.35;;;11.40;85.00;;;;;;4973638;28;20172;-72
2022/03/25 09:05:20;;;;;;;30.57;19.73;;;11.50;84.90;;;;;;4974691;28;20192;-72
2022/03/25 09:07:46;;;;;;;30.00;21.10;;;11.50;84.70;;;;;;4975203;28;20260;-72
2022/03/25 09:10:16;;;;;;;31.77;20.75;;;11.60;84.80;;;;;;4974216;28;20263;-71
2022/03/25 09:12:44;;;;;;;34.57;22.03;;;11.70;84.70;;;;;;4974666;28;20200;-71
2022/03/25 09:15:12;;;;;;;31.67;20.70;;;11.90;84.70;;;;;;4974682;28;20191;-72
2022/03/25 09:17:41;;;;;;;30.00;21.35;;;12.00;84.70;;;;;;4975475;28;20187;-73
2022/03/25 09:20:10;;;;;;;29.58;21.02;;;12.10;84.60;;;;;;4974587;28;20215;-72
2022/03/25 09:22:38;;;;;;;34.38;22.75;;;12.20;84.50;;;;;;4971525;28;20179;-72
2022/03/25 09:25:10;;;;;;;29.75;20.83;;;12.30;84.00;;;;;;4956024;29;20267;-70
2022/03/25 09:27:37;;;;;;;34.22;23.80;;;12.40;83.80;;;;;;4971949;28;20173;-72
2022/03/25 09:30:04;;;;;;;33.13;23.92;;;12.60;83.10;;;;;;4961673;28;20187;-72
2022/03/25 09:32:35;;;;;;;28.85;19.98;;;12.70;82.70;;;;;;4974982;28;20234;-71
2022/03/25 09:35:09;;;;;;;33.60;22.38;;;12.80;82.60;;;;;;4969003;28;20196;-72
2022/03/25 09:37:48;;;;;;;29.92;19.88;;;13.00;82.20;;;;;;4971717;28;20188;-73
2022/03/25 09:40:24;;;;;;;32.58;20.02;;;13.10;81.30;;;;;;4971882;28;20192;-72
2022/03/25 09:42:57;;;;;;;24.35;17.88;;;13.20;81.10;;;;;;4974700;28;20188;-73
2022/03/25 09:45:26;;;;;;;25.55;18.25;;;13.30;81.00;;;;;;4971814;28;20187;-71
2022/03/25 09:47:54;;;;;;;30.23;20.23;;;13.50;81.00;;;;;;4974551;28;20176;-72
2022/03/25 09:50:27;;;;;;;28.05;18.17;;;13.60;80.00;;;;;;4975747;28;20183;-72
2022/03/25 09:52:56;;;;;;;23.42;16.65;;;13.90;80.30;;;;;;4981234;28;20178;-71
2022/03/25 09:55:21;;;;;;;27.05;18.05;;;14.40;79.40;;;;;;4978522;28;20186;-71
2022/03/25 09:57:48;;;;;;;22.73;17.08;;;15.00;77.90;;;;;;4978138;28;20176;-72
2022/03/25 10:00:19;;;;;;;23.40;17.60;;;15.60;76.70;;;;;;4977416;28;20242;-73
2022/03/25 10:02:47;;;;;;;24.13;17.58;;;16.30;74.60;;;;;;4978386;28;20248;-72
2022/03/25 10:05:20;;;;;;;23.90;17.15;;;16.90;72.90;;;;;;4977963;28;20247;-69
2022/03/25 10:07:47;;;;;;;22.35;16.45;;;17.40;70.80;;;;;;4977972;28;20176;-70
2022/03/25 10:10:23;;;;;;;21.48;16.75;;;17.90;70.10;;;;;;4978050;28;20176;-70
2022/03/25 10:13:02;;;;;;;22.45;17.13;;;18.30;68.00;;;;;;4976217;28;20184;-70
2022/03/25 10:15:38;;;;;;;21.13;16.55;;;18.70;65.90;;;;;;4978028;28;20203;-69
2022/03/25 10:18:09;;;;;;;24.95;17.83;;;19.00;65.10;;;;;;4978041;28;20235;-71
2022/03/25 10:20:34;;;;;;;21.50;16.60;;;19.30;64.70;;;;;;4977552;28;20243;-71
2022/03/25 10:23:11;;;;;;;23.58;17.23;;;19.50;64.80;;;;;;4977862;28;20184;-70
2022/03/25 10:25:55;;;;;;;21.33;16.85;;;19.90;62.40;;;;;;4965822;28;20190;-71
2022/03/25 10:28:42;;;;;;;24.65;17.63;;;20.20;62.10;;;;;;4958114;29;20165;-68
2022/03/25 10:31:11;;;;;;;23.00;16.45;;;20.50;59.10;;;;;;4967594;28;20183;-70
2022/03/25 10:33:44;;;;;;;23.52;17.30;;;20.70;61.10;;;;;;4976309;28;20176;-70
2022/03/25 10:36:14;;;;;;;23.20;16.23;;;20.90;58.10;;;;;;4963747;28;20180;-71
2022/03/25 10:38:54;;;;;;;21.67;15.32;;;21.00;59.00;;;;;;4977616;28;20266;-72
2022/03/25 10:41:24;;;;;;;20.45;15.02;;;21.20;57.80;;;;;;4976371;28;20203;-69
2022/03/25 10:44:04;;;;;;;21.50;16.00;;;21.40;57.90;;;;;;4977273;28;20183;-71
2022/03/25 10:46:35;;;;;;;19.42;15.10;;;21.40;57.40;;;;;;4977613;28;20187;-71
2022/03/25 10:49:05;;;;;;;22.42;13.68;;;21.50;57.80;;;;;;4977429;28;20199;-71
2022/03/25 10:51:35;;;;;;;17.65;13.40;;;21.60;57.30;;;;;;4977386;28;20227;-69
2022/03/25 10:54:03;;;;;;;16.85;12.80;;;21.80;57.00;;;;;;4978022;28;20199;-76
2022/03/25 10:56:53;;;;;;;17.65;13.50;;;22.00;57.20;;;;;;4974021;28;20243;-76
2022/03/25 10:59:34;;;;;;;15.02;11.90;;;22.20;54.70;;;;;;4973622;28;20198;-76
2022/03/25 11:02:07;;;;;;;15.88;12.50;;;22.40;55.40;;;;;;4975734;28;20247;-75
2022/03/25 11:04:36;;;;;;;14.90;12.25;;;22.50;56.50;;;;;;4976778;28;20191;-76
2022/03/25 11:07:04;;;;;;;14.55;10.98;;;22.70;56.80;;;;;;4976742;28;20180;-76
2022/03/25 11:09:32;;;;;;;15.52;11.35;;;22.80;56.00;;;;;;4976299;28;20183;-76
2022/03/25 11:12:02;;;;;;;12.90;10.38;;;23.00;55.20;;;;;;4976575;28;20204;-76
2022/03/25 11:14:28;;;;;;;15.38;10.93;;;23.10;55.10;;;;;;4976705;28;20203;-76
2022/03/25 11:16:55;;;;;;;13.02;9.50;;;23.20;55.30;;;;;;4976732;28;20235;-74
2022/03/25 11:19:25;;;;;;;11.98;8.85;;;23.20;54.00;;;;;;4976561;28;20216;-75
2022/03/25 11:21:54;;;;;;;11.32;8.90;;;23.30;53.90;;;;;;4976482;28;20275;-75
2022/03/25 11:24:25;;;;;;;14.73;10.40;;;23.30;54.00;;;;;;4973237;28;20184;-76
2022/03/25 11:26:53;;;;;;;13.35;9.70;;;23.30;51.60;;;;;;4957132;28;20205;-76
2022/03/25 11:29:23;;;;;;;12.68;9.88;;;23.30;52.30;;;;;;4976158;28;20249;-75
2022/03/25 11:32:08;;;;;;;17.05;9.80;;;23.20;51.90;;;;;;4973810;28;20175;-74
2022/03/25 11:35:00;;;;;;;13.30;10.52;;;23.10;50.10;;;;;;4957110;29;20239;-75
2022/03/25 11:37:33;;;;;;;14.20;9.75;;;23.10;50.50;;;;;;4950758;28;20196;-75
2022/03/25 11:40:14;;;;;;;13.38;10.30;;;23.10;51.60;;;;;;4976042;28;20282;-73
2022/03/25 11:42:44;;;;;;;12.50;10.10;;;23.10;50.80;;;;;;4974224;28;20207;-75
2022/03/25 11:45:22;;;;;;;18.75;12.45;;;23.20;52.50;;;;;;4975526;28;20176;-76
2022/03/25 11:48:02;;;;;;;15.07;11.27;;;23.20;49.90;;;;;;4975914;28;20379;-73
2022/03/25 11:50:48;;;;;;;16.30;12.02;;;23.20;50.70;;;;;;4956898;29;20215;-75
2022/03/25 11:53:18;;;;;;;16.48;11.93;;;23.20;49.30;;;;;;4963657;28;20200;-74
2022/03/25 11:55:59;;;;;;;15.35;11.20;;;23.20;49.50;;;;;;4976198;28;20188;-74
2022/03/25 11:58:29;;;;;;;14.65;11.38;;;23.20;49.20;;;;;;4975422;28;20184;-76
2022/03/25 12:01:15;;;;;;;15.05;11.07;;;23.10;50.00;;;;;;4975704;28;20228;-73
2022/03/25 12:03:44;;;;;;;15.20;10.88;;;23.10;49.40;;;;;;4975718;28;20176;-75
2022/03/25 12:06:11;;;;;;;16.85;12.48;;;23.20;50.70;;;;;;4976381;28;20371;-76
2022/03/25 12:08:39;;;;;;;17.95;12.20;;;23.30;49.00;;;;;;4975606;28;20211;-76
2022/03/25 12:11:11;;;;;;;15.93;11.63;;;23.30;49.70;;;;;;4975770;28;20187;-74
2022/03/25 12:13:55;;;;;;;14.00;10.35;;;23.30;49.70;;;;;;4973093;28;20169;-76
2022/03/25 12:16:45;;;;;;;13.82;10.50;;;23.30;49.00;;;;;;4972396;28;20183;-74
2022/03/25 12:19:28;;;;;;;15.88;11.18;;;23.40;49.10;;;;;;4987553;28;20259;-76
2022/03/25 12:22:01;;;;;;;17.52;10.43;;;23.50;48.40;;;;;;4988200;28;20215;-75
2022/03/25 12:24:30;;;;;;;14.68;10.07;;;23.50;48.90;;;;;;4974732;28;20172;-75
2022/03/25 12:27:00;;;;;;;13.85;10.20;;;23.50;48.80;;;;;;4975278;28;20164;-76
2022/03/25 12:29:53;;;;;;;13.07;9.98;;;23.50;48.60;;;;;;4972080;28;20196;-76
2022/03/25 12:32:23;;;;;;;14.20;10.48;;;23.70;47.70;;;;;;4969937;28;20336;-76
2022/03/25 12:35:10;;;;;;;14.60;10.05;;;23.80;49.00;;;;;;4969498;28;20173;-74
2022/03/25 12:37:38;;;;;;;14.50;10.88;;;23.90;47.50;;;;;;4973135;28;20195;-74
2022/03/25 12:40:26;;;;;;;14.60;10.93;;;24.00;47.70;;;;;;4975516;28;20207;-75
2022/03/25 12:42:58;;;;;;;14.23;9.98;;;24.10;46.60;;;;;;4974495;28;20196;-71
2022/03/25 12:45:34;;;;;;;13.50;9.75;;;24.10;48.00;;;;;;4975203;28;20175;-77
2022/03/25 12:48:15;;;;;;;15.15;9.65;;;24.20;46.90;;;;;;4974986;28;20198;-76